sensor_id;sensor_type;location;lat;lon;timestamp;P1;durP1;ratioP1;P2;durP2;ratioP2
21107;SDS011;10712;52.944;9.098;2023-06-10T00:02:07;5.65;;;3.35;;
21107;SDS011;10712;52.944;9.098;2023-06-10T00:04:33;7.00;;;3.65;;
21107;SDS011;10712;52.944;9.098;2023-06-10T00:07:02;6.82;;;3.20;;
21107;SDS011;10712;52.944;9.098;2023-06-10T00:12:05;7.63;;;3.40;;
21107;SDS011;10712;52.944;9.098;2023-06-10T00:14:37;10.50;;;3.42;;
21107;SDS011;10712;52.944;9.098;2023-06-10T00:17:05;6.82;;;3.40;;
21107;SDS011;10712;52.944;9.098;2023-06-10T00:19:34;3.60;;;2.80;;
21107;SDS011;10712;52.944;9.098;2023-06-10T00:22:00;8.00;;;3.65;;
21107;SDS011;10712;52.944;9.098;2023-06-10T00:24:26;6.50;;;2.95;;
21107;SDS011;10712;52.944;9.098;2023-06-10T00:26:51;5.65;;;3.83;;
21107;SDS011;10712;52.944;9.098;2023-06-10T00:29:17;6.28;;;3.40;;
21107;SDS011;10712;52.944;9.098;2023-06-10T00:31:45;6.05;;;3.13;;
21107;SDS011;10712;52.944;9.098;2023-06-10T00:34:11;7.22;;;3.20;;
21107;SDS011;10712;52.944;9.098;2023-06-10T00:36:38;5.78;;;3.47;;
21107;SDS011;10712;52.944;9.098;2023-06-10T00:39:03;5.15;;;2.95;;
21107;SDS011;10712;52.944;9.098;2023-06-10T00:41:29;6.32;;;3.28;;
21107;SDS011;10712;52.944;9.098;2023-06-10T00:43:56;7.47;;;3.22;;
21107;SDS011;10712;52.944;9.098;2023-06-10T00:46:22;5.93;;;3.22;;
21107;SDS011;10712;52.944;9.098;2023-06-10T00:48:51;5.20;;;2.80;;
21107;SDS011;10712;52.944;9.098;2023-06-10T00:51:17;7.05;;;3.72;;
21107;SDS011;10712;52.944;9.098;2023-06-10T00:53:44;12.52;;;3.25;;
21107;SDS011;10712;52.944;9.098;2023-06-10T00:56:10;6.40;;;3.55;;
21107;SDS011;10712;52.944;9.098;2023-06-10T00:58:38;11.45;;;3.30;;
21107;SDS011;10712;52.944;9.098;2023-06-10T01:01:04;5.10;;;3.33;;
21107;SDS011;10712;52.944;9.098;2023-06-10T01:03:29;4.60;;;3.20;;
21107;SDS011;10712;52.944;9.098;2023-06-10T01:05:58;7.88;;;3.45;;
21107;SDS011;10712;52.944;9.098;2023-06-10T01:08:55;6.47;;;3.33;;
21107;SDS011;10712;52.944;9.098;2023-06-10T01:11:28;5.88;;;3.60;;
21107;SDS011;10712;52.944;9.098;2023-06-10T01:14:01;4.50;;;2.85;;
21107;SDS011;10712;52.944;9.098;2023-06-10T01:16:30;5.95;;;2.97;;
21107;SDS011;10712;52.944;9.098;2023-06-10T01:18:56;6.40;;;3.25;;
21107;SDS011;10712;52.944;9.098;2023-06-10T01:21:24;7.53;;;3.10;;
21107;SDS011;10712;52.944;9.098;2023-06-10T01:23:51;5.28;;;3.00;;
21107;SDS011;10712;52.944;9.098;2023-06-10T01:26:24;5.85;;;3.25;;
21107;SDS011;10712;52.944;9.098;2023-06-10T01:28:58;7.57;;;3.38;;
21107;SDS011;10712;52.944;9.098;2023-06-10T01:31:40;6.65;;;3.28;;
21107;SDS011;10712;52.944;9.098;2023-06-10T01:34:16;4.00;;;2.63;;
21107;SDS011;10712;52.944;9.098;2023-06-10T01:36:44;5.45;;;3.60;;
21107;SDS011;10712;52.944;9.098;2023-06-10T01:39:14;10.13;;;3.38;;
21107;SDS011;10712;52.944;9.098;2023-06-10T01:41:47;7.28;;;3.47;;
21107;SDS011;10712;52.944;9.098;2023-06-10T01:44:19;5.35;;;3.63;;
21107;SDS011;10712;52.944;9.098;2023-06-10T01:46:49;6.25;;;3.28;;
21107;SDS011;10712;52.944;9.098;2023-06-10T01:49:15;4.28;;;2.70;;
21107;SDS011;10712;52.944;9.098;2023-06-10T01:51:42;7.20;;;3.65;;
21107;SDS011;10712;52.944;9.098;2023-06-10T01:54:08;8.85;;;4.03;;
21107;SDS011;10712;52.944;9.098;2023-06-10T01:56:34;9.70;;;3.95;;
21107;SDS011;10712;52.944;9.098;2023-06-10T01:59:00;5.90;;;3.40;;
21107;SDS011;10712;52.944;9.098;2023-06-10T02:01:26;5.53;;;3.80;;
21107;SDS011;10712;52.944;9.098;2023-06-10T02:03:52;4.28;;;3.25;;
21107;SDS011;10712;52.944;9.098;2023-06-10T02:06:18;8.55;;;3.20;;
21107;SDS011;10712;52.944;9.098;2023-06-10T02:08:44;5.68;;;3.38;;
21107;SDS011;10712;52.944;9.098;2023-06-10T02:11:10;7.18;;;3.60;;
21107;SDS011;10712;52.944;9.098;2023-06-10T02:13:37;6.88;;;3.95;;
21107;SDS011;10712;52.944;9.098;2023-06-10T02:16:03;5.97;;;3.10;;
21107;SDS011;10712;52.944;9.098;2023-06-10T02:18:30;6.70;;;3.17;;
21107;SDS011;10712;52.944;9.098;2023-06-10T02:20:56;6.32;;;3.17;;
21107;SDS011;10712;52.944;9.098;2023-06-10T02:23:22;8.68;;;3.75;;
21107;SDS011;10712;52.944;9.098;2023-06-10T02:25:48;6.60;;;3.33;;
21107;SDS011;10712;52.944;9.098;2023-06-10T02:28:14;8.77;;;4.25;;
21107;SDS011;10712;52.944;9.098;2023-06-10T02:30:40;8.27;;;4.10;;
21107;SDS011;10712;52.944;9.098;2023-06-10T02:33:08;7.35;;;3.67;;
21107;SDS011;10712;52.944;9.098;2023-06-10T02:35:40;6.32;;;4.05;;
21107;SDS011;10712;52.944;9.098;2023-06-10T02:38:06;7.90;;;3.28;;
21107;SDS011;10712;52.944;9.098;2023-06-10T02:40:33;9.95;;;4.38;;
21107;SDS011;10712;52.944;9.098;2023-06-10T02:42:59;6.07;;;3.92;;
21107;SDS011;10712;52.944;9.098;2023-06-10T02:45:25;7.18;;;3.90;;
21107;SDS011;10712;52.944;9.098;2023-06-10T02:47:52;11.52;;;4.20;;
21107;SDS011;10712;52.944;9.098;2023-06-10T02:50:18;6.60;;;3.90;;
21107;SDS011;10712;52.944;9.098;2023-06-10T02:53:10;9.93;;;4.38;;
21107;SDS011;10712;52.944;9.098;2023-06-10T02:55:41;10.80;;;4.32;;
21107;SDS011;10712;52.944;9.098;2023-06-10T02:58:11;5.63;;;3.60;;
21107;SDS011;10712;52.944;9.098;2023-06-10T03:00:37;7.05;;;3.50;;
21107;SDS011;10712;52.944;9.098;2023-06-10T03:03:06;7.65;;;4.40;;
21107;SDS011;10712;52.944;9.098;2023-06-10T03:05:40;5.35;;;3.97;;
21107;SDS011;10712;52.944;9.098;2023-06-10T03:08:06;5.35;;;4.18;;
21107;SDS011;10712;52.944;9.098;2023-06-10T03:10:35;5.13;;;3.90;;
21107;SDS011;10712;52.944;9.098;2023-06-10T03:13:02;4.43;;;3.60;;
21107;SDS011;10712;52.944;9.098;2023-06-10T03:15:28;6.10;;;3.90;;
21107;SDS011;10712;52.944;9.098;2023-06-10T03:18:00;7.18;;;3.90;;
21107;SDS011;10712;52.944;9.098;2023-06-10T03:20:26;6.38;;;4.18;;
21107;SDS011;10712;52.944;9.098;2023-06-10T03:22:53;6.03;;;3.70;;
21107;SDS011;10712;52.944;9.098;2023-06-10T03:25:18;9.80;;;4.78;;
21107;SDS011;10712;52.944;9.098;2023-06-10T03:27:48;5.25;;;3.83;;
21107;SDS011;10712;52.944;9.098;2023-06-10T03:30:15;8.05;;;4.55;;
21107;SDS011;10712;52.944;9.098;2023-06-10T03:32:43;7.43;;;4.18;;
21107;SDS011;10712;52.944;9.098;2023-06-10T03:35:13;7.93;;;4.60;;
21107;SDS011;10712;52.944;9.098;2023-06-10T03:37:40;8.90;;;4.68;;
21107;SDS011;10712;52.944;9.098;2023-06-10T03:40:07;8.77;;;5.25;;
21107;SDS011;10712;52.944;9.098;2023-06-10T03:42:34;7.57;;;5.50;;
21107;SDS011;10712;52.944;9.098;2023-06-10T03:45:01;8.02;;;5.57;;
21107;SDS011;10712;52.944;9.098;2023-06-10T03:47:34;7.75;;;5.85;;
21107;SDS011;10712;52.944;9.098;2023-06-10T03:50:05;8.10;;;5.30;;
21107;SDS011;10712;52.944;9.098;2023-06-10T03:52:33;8.52;;;5.97;;
21107;SDS011;10712;52.944;9.098;2023-06-10T03:55:01;7.75;;;5.45;;
21107;SDS011;10712;52.944;9.098;2023-06-10T03:57:27;7.43;;;5.43;;
21107;SDS011;10712;52.944;9.098;2023-06-10T03:59:53;9.18;;;5.55;;
21107;SDS011;10712;52.944;9.098;2023-06-10T04:02:22;7.38;;;5.50;;
21107;SDS011;10712;52.944;9.098;2023-06-10T04:04:48;10.98;;;6.13;;
21107;SDS011;10712;52.944;9.098;2023-06-10T04:07:14;8.48;;;6.05;;
21107;SDS011;10712;52.944;9.098;2023-06-10T04:09:40;8.67;;;5.87;;
21107;SDS011;10712;52.944;9.098;2023-06-10T04:12:06;7.18;;;6.25;;
21107;SDS011;10712;52.944;9.098;2023-06-10T04:14:34;8.07;;;6.18;;
21107;SDS011;10712;52.944;9.098;2023-06-10T04:17:02;7.78;;;5.28;;
21107;SDS011;10712;52.944;9.098;2023-06-10T04:19:31;10.02;;;5.82;;
21107;SDS011;10712;52.944;9.098;2023-06-10T04:21:57;9.95;;;5.93;;
21107;SDS011;10712;52.944;9.098;2023-06-10T04:24:26;11.75;;;6.35;;
21107;SDS011;10712;52.944;9.098;2023-06-10T04:26:52;8.90;;;5.35;;
21107;SDS011;10712;52.944;9.098;2023-06-10T04:29:17;12.98;;;6.40;;
21107;SDS011;10712;52.944;9.098;2023-06-10T04:31:44;9.80;;;6.20;;
21107;SDS011;10712;52.944;9.098;2023-06-10T04:34:12;8.88;;;6.10;;
21107;SDS011;10712;52.944;9.098;2023-06-10T04:36:38;7.40;;;5.50;;
21107;SDS011;10712;52.944;9.098;2023-06-10T04:39:05;7.43;;;6.13;;
21107;SDS011;10712;52.944;9.098;2023-06-10T04:41:32;11.32;;;6.85;;
21107;SDS011;10712;52.944;9.098;2023-06-10T04:43:58;11.02;;;6.65;;
21107;SDS011;10712;52.944;9.098;2023-06-10T04:46:24;8.35;;;5.72;;
21107;SDS011;10712;52.944;9.098;2023-06-10T04:48:50;10.85;;;6.65;;
21107;SDS011;10712;52.944;9.098;2023-06-10T04:51:16;10.82;;;6.18;;
21107;SDS011;10712;52.944;9.098;2023-06-10T04:53:42;7.60;;;5.97;;
21107;SDS011;10712;52.944;9.098;2023-06-10T04:56:07;9.55;;;5.40;;
21107;SDS011;10712;52.944;9.098;2023-06-10T04:58:34;9.68;;;5.93;;
21107;SDS011;10712;52.944;9.098;2023-06-10T05:01:00;13.52;;;6.57;;
21107;SDS011;10712;52.944;9.098;2023-06-10T05:03:27;11.98;;;6.90;;
21107;SDS011;10712;52.944;9.098;2023-06-10T05:05:52;7.25;;;5.47;;
21107;SDS011;10712;52.944;9.098;2023-06-10T05:08:18;8.75;;;6.10;;
21107;SDS011;10712;52.944;9.098;2023-06-10T05:10:44;10.82;;;5.90;;
21107;SDS011;10712;52.944;9.098;2023-06-10T05:13:09;9.18;;;5.72;;
21107;SDS011;10712;52.944;9.098;2023-06-10T05:15:35;10.55;;;6.15;;
21107;SDS011;10712;52.944;9.098;2023-06-10T05:18:02;10.60;;;6.80;;
21107;SDS011;10712;52.944;9.098;2023-06-10T05:20:27;9.55;;;6.80;;
21107;SDS011;10712;52.944;9.098;2023-06-10T05:22:54;9.13;;;5.53;;
21107;SDS011;10712;52.944;9.098;2023-06-10T05:25:20;6.90;;;5.47;;
21107;SDS011;10712;52.944;9.098;2023-06-10T05:27:46;8.55;;;5.95;;
21107;SDS011;10712;52.944;9.098;2023-06-10T05:30:12;10.75;;;6.63;;
21107;SDS011;10712;52.944;9.098;2023-06-10T05:32:37;8.80;;;6.10;;
21107;SDS011;10712;52.944;9.098;2023-06-10T05:35:03;14.48;;;5.95;;
21107;SDS011;10712;52.944;9.098;2023-06-10T05:37:29;8.43;;;5.35;;
21107;SDS011;10712;52.944;9.098;2023-06-10T05:39:55;6.53;;;5.38;;
21107;SDS011;10712;52.944;9.098;2023-06-10T05:42:21;9.45;;;5.65;;
21107;SDS011;10712;52.944;9.098;2023-06-10T05:44:47;11.48;;;6.35;;
21107;SDS011;10712;52.944;9.098;2023-06-10T05:47:12;9.90;;;6.35;;
21107;SDS011;10712;52.944;9.098;2023-06-10T05:49:38;9.20;;;5.78;;
21107;SDS011;10712;52.944;9.098;2023-06-10T05:52:04;9.73;;;5.78;;
21107;SDS011;10712;52.944;9.098;2023-06-10T05:54:30;7.57;;;5.53;;
21107;SDS011;10712;52.944;9.098;2023-06-10T05:56:56;8.48;;;5.60;;
21107;SDS011;10712;52.944;9.098;2023-06-10T05:59:22;8.07;;;5.47;;
21107;SDS011;10712;52.944;9.098;2023-06-10T06:01:48;11.27;;;6.00;;
21107;SDS011;10712;52.944;9.098;2023-06-10T06:04:15;10.57;;;6.03;;
21107;SDS011;10712;52.944;9.098;2023-06-10T06:06:41;9.70;;;6.60;;
21107;SDS011;10712;52.944;9.098;2023-06-10T06:09:07;8.75;;;5.13;;
21107;SDS011;10712;52.944;9.098;2023-06-10T06:11:33;11.35;;;6.03;;
21107;SDS011;10712;52.944;9.098;2023-06-10T06:14:01;8.27;;;5.75;;
21107;SDS011;10712;52.944;9.098;2023-06-10T06:16:26;10.75;;;6.82;;
21107;SDS011;10712;52.944;9.098;2023-06-10T06:18:52;10.40;;;5.90;;
21107;SDS011;10712;52.944;9.098;2023-06-10T06:21:18;7.97;;;6.10;;
21107;SDS011;10712;52.944;9.098;2023-06-10T06:23:43;10.35;;;6.57;;
21107;SDS011;10712;52.944;9.098;2023-06-10T06:26:09;7.53;;;4.90;;
21107;SDS011;10712;52.944;9.098;2023-06-10T06:28:35;6.22;;;5.40;;
21107;SDS011;10712;52.944;9.098;2023-06-10T06:31:01;7.88;;;5.65;;
21107;SDS011;10712;52.944;9.098;2023-06-10T06:33:27;10.93;;;6.43;;
21107;SDS011;10712;52.944;9.098;2023-06-10T06:35:52;10.60;;;7.03;;
21107;SDS011;10712;52.944;9.098;2023-06-10T06:38:18;8.57;;;5.80;;
21107;SDS011;10712;52.944;9.098;2023-06-10T06:40:44;10.07;;;6.03;;
21107;SDS011;10712;52.944;9.098;2023-06-10T06:43:10;9.25;;;6.60;;
21107;SDS011;10712;52.944;9.098;2023-06-10T06:45:41;11.88;;;5.88;;
21107;SDS011;10712;52.944;9.098;2023-06-10T06:48:07;10.38;;;6.07;;
21107;SDS011;10712;52.944;9.098;2023-06-10T06:50:33;11.10;;;5.88;;
21107;SDS011;10712;52.944;9.098;2023-06-10T06:52:58;7.85;;;5.45;;
21107;SDS011;10712;52.944;9.098;2023-06-10T06:55:24;7.60;;;6.18;;
21107;SDS011;10712;52.944;9.098;2023-06-10T06:57:50;8.52;;;5.75;;
21107;SDS011;10712;52.944;9.098;2023-06-10T07:00:16;7.50;;;5.35;;
21107;SDS011;10712;52.944;9.098;2023-06-10T07:02:42;8.23;;;5.40;;
21107;SDS011;10712;52.944;9.098;2023-06-10T07:05:08;8.98;;;5.13;;
21107;SDS011;10712;52.944;9.098;2023-06-10T07:07:34;5.93;;;4.55;;
21107;SDS011;10712;52.944;9.098;2023-06-10T07:10:00;7.25;;;4.93;;
21107;SDS011;10712;52.944;9.098;2023-06-10T07:12:25;10.50;;;5.68;;
21107;SDS011;10712;52.944;9.098;2023-06-10T07:14:51;7.97;;;5.22;;
21107;SDS011;10712;52.944;9.098;2023-06-10T07:17:17;13.20;;;5.95;;
21107;SDS011;10712;52.944;9.098;2023-06-10T07:19:43;10.48;;;5.05;;
21107;SDS011;10712;52.944;9.098;2023-06-10T07:22:10;9.13;;;5.45;;
21107;SDS011;10712;52.944;9.098;2023-06-10T07:24:36;5.57;;;4.53;;
21107;SDS011;10712;52.944;9.098;2023-06-10T07:27:02;10.73;;;5.40;;
21107;SDS011;10712;52.944;9.098;2023-06-10T07:29:28;11.65;;;7.25;;
21107;SDS011;10712;52.944;9.098;2023-06-10T07:31:54;13.57;;;5.70;;
21107;SDS011;10712;52.944;9.098;2023-06-10T07:34:19;11.57;;;5.63;;
21107;SDS011;10712;52.944;9.098;2023-06-10T07:36:45;11.13;;;5.97;;
21107;SDS011;10712;52.944;9.098;2023-06-10T07:39:11;8.48;;;5.78;;
21107;SDS011;10712;52.944;9.098;2023-06-10T07:41:37;5.90;;;4.55;;
21107;SDS011;10712;52.944;9.098;2023-06-10T07:44:02;6.00;;;4.53;;
21107;SDS011;10712;52.944;9.098;2023-06-10T07:46:28;9.20;;;5.35;;
21107;SDS011;10712;52.944;9.098;2023-06-10T07:48:54;8.82;;;4.90;;
21107;SDS011;10712;52.944;9.098;2023-06-10T07:51:20;5.82;;;4.53;;
21107;SDS011;10712;52.944;9.098;2023-06-10T07:53:46;6.05;;;3.97;;
21107;SDS011;10712;52.944;9.098;2023-06-10T07:56:12;12.88;;;5.32;;
21107;SDS011;10712;52.944;9.098;2023-06-10T07:58:38;12.25;;;4.65;;
21107;SDS011;10712;52.944;9.098;2023-06-10T08:01:04;47.85;;;7.53;;
21107;SDS011;10712;52.944;9.098;2023-06-10T08:03:30;157.88;;;13.95;;
21107;SDS011;10712;52.944;9.098;2023-06-10T08:05:56;9.15;;;5.03;;
21107;SDS011;10712;52.944;9.098;2023-06-10T08:08:21;7.43;;;5.22;;
21107;SDS011;10712;52.944;9.098;2023-06-10T08:10:47;5.57;;;3.78;;
21107;SDS011;10712;52.944;9.098;2023-06-10T08:13:14;8.55;;;4.82;;
21107;SDS011;10712;52.944;9.098;2023-06-10T08:15:40;8.02;;;4.30;;
21107;SDS011;10712;52.944;9.098;2023-06-10T08:18:06;7.95;;;5.18;;
21107;SDS011;10712;52.944;9.098;2023-06-10T08:20:31;4.28;;;3.75;;
21107;SDS011;10712;52.944;9.098;2023-06-10T08:22:57;6.88;;;4.55;;
21107;SDS011;10712;52.944;9.098;2023-06-10T08:25:23;7.35;;;4.05;;
21107;SDS011;10712;52.944;9.098;2023-06-10T08:27:49;7.50;;;4.05;;
21107;SDS011;10712;52.944;9.098;2023-06-10T08:30:15;6.75;;;4.60;;
21107;SDS011;10712;52.944;9.098;2023-06-10T08:32:41;10.55;;;4.88;;
21107;SDS011;10712;52.944;9.098;2023-06-10T08:35:07;7.18;;;4.68;;
21107;SDS011;10712;52.944;9.098;2023-06-10T08:37:33;7.80;;;4.65;;
21107;SDS011;10712;52.944;9.098;2023-06-10T08:39:59;7.43;;;3.85;;
21107;SDS011;10712;52.944;9.098;2023-06-10T08:42:28;4.50;;;3.85;;
21107;SDS011;10712;52.944;9.098;2023-06-10T08:45:01;8.20;;;3.30;;
21107;SDS011;10712;52.944;9.098;2023-06-10T08:47:28;10.02;;;3.97;;
21107;SDS011;10712;52.944;9.098;2023-06-10T08:50:02;5.18;;;3.72;;
21107;SDS011;10712;52.944;9.098;2023-06-10T08:52:36;6.43;;;4.53;;
21107;SDS011;10712;52.944;9.098;2023-06-10T08:55:15;5.88;;;3.78;;
21107;SDS011;10712;52.944;9.098;2023-06-10T08:57:54;7.25;;;3.25;;
21107;SDS011;10712;52.944;9.098;2023-06-10T09:00:20;6.82;;;3.47;;
21107;SDS011;10712;52.944;9.098;2023-06-10T09:02:47;7.93;;;3.92;;
21107;SDS011;10712;52.944;9.098;2023-06-10T09:05:14;10.05;;;3.97;;
21107;SDS011;10712;52.944;9.098;2023-06-10T09:07:41;6.32;;;4.00;;
21107;SDS011;10712;52.944;9.098;2023-06-10T09:10:09;5.65;;;3.75;;
21107;SDS011;10712;52.944;9.098;2023-06-10T09:12:36;7.05;;;3.85;;
21107;SDS011;10712;52.944;9.098;2023-06-10T09:15:03;7.32;;;3.97;;
21107;SDS011;10712;52.944;9.098;2023-06-10T09:17:30;5.90;;;3.95;;
21107;SDS011;10712;52.944;9.098;2023-06-10T09:19:56;9.45;;;4.68;;
21107;SDS011;10712;52.944;9.098;2023-06-10T09:22:22;7.07;;;4.07;;
21107;SDS011;10712;52.944;9.098;2023-06-10T09:24:50;5.20;;;3.63;;
21107;SDS011;10712;52.944;9.098;2023-06-10T09:27:16;8.50;;;4.15;;
21107;SDS011;10712;52.944;9.098;2023-06-10T09:29:51;5.90;;;4.38;;
21107;SDS011;10712;52.944;9.098;2023-06-10T09:32:19;6.28;;;3.63;;
21107;SDS011;10712;52.944;9.098;2023-06-10T09:34:46;5.03;;;3.20;;
21107;SDS011;10712;52.944;9.098;2023-06-10T09:37:14;3.90;;;3.05;;
21107;SDS011;10712;52.944;9.098;2023-06-10T09:40:05;4.55;;;3.10;;
21107;SDS011;10712;52.944;9.098;2023-06-10T09:42:34;4.07;;;3.33;;
21107;SDS011;10712;52.944;9.098;2023-06-10T09:45:04;5.88;;;2.90;;
21107;SDS011;10712;52.944;9.098;2023-06-10T09:47:31;5.80;;;3.22;;
21107;SDS011;10712;52.944;9.098;2023-06-10T09:49:57;4.47;;;3.28;;
21107;SDS011;10712;52.944;9.098;2023-06-10T09:52:23;5.85;;;3.60;;
21107;SDS011;10712;52.944;9.098;2023-06-10T09:54:55;9.15;;;3.03;;
21107;SDS011;10712;52.944;9.098;2023-06-10T09:57:31;10.30;;;3.85;;
21107;SDS011;10712;52.944;9.098;2023-06-10T10:00:07;7.88;;;3.63;;
21107;SDS011;10712;52.944;9.098;2023-06-10T10:02:47;7.93;;;3.35;;
21107;SDS011;10712;52.944;9.098;2023-06-10T10:05:16;7.55;;;3.92;;
21107;SDS011;10712;52.944;9.098;2023-06-10T10:07:44;7.07;;;3.72;;
21107;SDS011;10712;52.944;9.098;2023-06-10T10:10:11;6.07;;;3.08;;
21107;SDS011;10712;52.944;9.098;2023-06-10T10:12:39;4.28;;;2.90;;
21107;SDS011;10712;52.944;9.098;2023-06-10T10:15:10;4.07;;;2.92;;
21107;SDS011;10712;52.944;9.098;2023-06-10T10:17:37;4.32;;;3.08;;
21107;SDS011;10712;52.944;9.098;2023-06-10T10:20:24;7.90;;;3.40;;
21107;SDS011;10712;52.944;9.098;2023-06-10T10:22:56;2.70;;;2.47;;
21107;SDS011;10712;52.944;9.098;2023-06-10T10:25:25;5.68;;;3.25;;
21107;SDS011;10712;52.944;9.098;2023-06-10T10:28:10;4.85;;;3.45;;
21107;SDS011;10712;52.944;9.098;2023-06-10T10:30:40;4.50;;;3.00;;
21107;SDS011;10712;52.944;9.098;2023-06-10T10:33:12;4.50;;;3.10;;
21107;SDS011;10712;52.944;9.098;2023-06-10T10:35:43;5.78;;;3.13;;
21107;SDS011;10712;52.944;9.098;2023-06-10T10:38:11;4.25;;;3.10;;
21107;SDS011;10712;52.944;9.098;2023-06-10T10:40:37;5.13;;;2.83;;
21107;SDS011;10712;52.944;9.098;2023-06-10T10:43:04;5.30;;;2.95;;
21107;SDS011;10712;52.944;9.098;2023-06-10T10:45:35;3.97;;;2.78;;
21107;SDS011;10712;52.944;9.098;2023-06-10T10:48:05;6.28;;;3.00;;
21107;SDS011;10712;52.944;9.098;2023-06-10T10:50:37;4.03;;;2.92;;
21107;SDS011;10712;52.944;9.098;2023-06-10T10:53:04;7.53;;;3.30;;
21107;SDS011;10712;52.944;9.098;2023-06-10T10:55:31;5.10;;;2.70;;
21107;SDS011;10712;52.944;9.098;2023-06-10T10:57:58;4.03;;;2.65;;
21107;SDS011;10712;52.944;9.098;2023-06-10T11:00:37;6.40;;;2.83;;
21107;SDS011;10712;52.944;9.098;2023-06-10T11:03:12;5.72;;;2.80;;
21107;SDS011;10712;52.944;9.098;2023-06-10T11:05:42;5.30;;;2.67;;
21107;SDS011;10712;52.944;9.098;2023-06-10T11:08:13;7.25;;;2.80;;
21107;SDS011;10712;52.944;9.098;2023-06-10T11:10:59;3.80;;;2.60;;
21107;SDS011;10712;52.944;9.098;2023-06-10T11:13:25;4.32;;;2.15;;
21107;SDS011;10712;52.944;9.098;2023-06-10T11:15:52;4.47;;;2.53;;
21107;SDS011;10712;52.944;9.098;2023-06-10T11:18:26;5.18;;;2.72;;
21107;SDS011;10712;52.944;9.098;2023-06-10T11:20:58;6.00;;;2.53;;
21107;SDS011;10712;52.944;9.098;2023-06-10T11:31:23;4.82;;;2.85;;
21107;SDS011;10712;52.944;9.098;2023-06-10T11:33:55;3.67;;;2.53;;
21107;SDS011;10712;52.944;9.098;2023-06-10T11:36:27;5.75;;;2.72;;
21107;SDS011;10712;52.944;9.098;2023-06-10T11:39:02;4.22;;;2.40;;
21107;SDS011;10712;52.944;9.098;2023-06-10T11:41:33;4.45;;;2.17;;
21107;SDS011;10712;52.944;9.098;2023-06-10T11:44:01;5.68;;;2.35;;
21107;SDS011;10712;52.944;9.098;2023-06-10T11:46:33;3.25;;;1.95;;
21107;SDS011;10712;52.944;9.098;2023-06-10T11:48:59;3.30;;;2.55;;
21107;SDS011;10712;52.944;9.098;2023-06-10T11:51:32;3.03;;;2.05;;
21107;SDS011;10712;52.944;9.098;2023-06-10T11:54:02;2.95;;;2.33;;
21107;SDS011;10712;52.944;9.098;2023-06-10T11:56:29;2.92;;;2.22;;
21107;SDS011;10712;52.944;9.098;2023-06-10T12:01:25;4.93;;;2.75;;
21107;SDS011;10712;52.944;9.098;2023-06-10T12:03:58;4.57;;;2.60;;
21107;SDS011;10712;52.944;9.098;2023-06-10T12:06:25;5.43;;;2.63;;
21107;SDS011;10712;52.944;9.098;2023-06-10T12:08:51;6.20;;;2.00;;
21107;SDS011;10712;52.944;9.098;2023-06-10T12:11:19;3.85;;;2.35;;
21107;SDS011;10712;52.944;9.098;2023-06-10T12:13:46;2.88;;;2.60;;
21107;SDS011;10712;52.944;9.098;2023-06-10T12:16:15;3.17;;;2.05;;
21107;SDS011;10712;52.944;9.098;2023-06-10T12:18:46;3.75;;;2.38;;
21107;SDS011;10712;52.944;9.098;2023-06-10T12:21:23;9.30;;;2.75;;
21107;SDS011;10712;52.944;9.098;2023-06-10T12:26:40;3.75;;;2.53;;
21107;SDS011;10712;52.944;9.098;2023-06-10T12:34:29;4.07;;;2.92;;
21107;SDS011;10712;52.944;9.098;2023-06-10T12:37:00;3.60;;;2.38;;
21107;SDS011;10712;52.944;9.098;2023-06-10T12:39:29;3.67;;;2.80;;
21107;SDS011;10712;52.944;9.098;2023-06-10T12:41:57;3.45;;;2.53;;
21107;SDS011;10712;52.944;9.098;2023-06-10T12:44:30;4.68;;;2.95;;
21107;SDS011;10712;52.944;9.098;2023-06-10T12:46:59;4.15;;;2.67;;
21107;SDS011;10712;52.944;9.098;2023-06-10T12:49:31;3.65;;;2.80;;
21107;SDS011;10712;52.944;9.098;2023-06-10T12:51:57;3.92;;;2.58;;
21107;SDS011;10712;52.944;9.098;2023-06-10T12:54:23;6.25;;;3.20;;
21107;SDS011;10712;52.944;9.098;2023-06-10T12:56:49;6.95;;;3.03;;
21107;SDS011;10712;52.944;9.098;2023-06-10T12:59:15;4.75;;;3.53;;
21107;SDS011;10712;52.944;9.098;2023-06-10T13:01:41;2.55;;;2.35;;
21107;SDS011;10712;52.944;9.098;2023-06-10T13:04:06;3.85;;;2.67;;
21107;SDS011;10712;52.944;9.098;2023-06-10T13:06:32;4.90;;;2.80;;
21107;SDS011;10712;52.944;9.098;2023-06-10T13:09:02;5.82;;;3.33;;
21107;SDS011;10712;52.944;9.098;2023-06-10T13:11:28;3.28;;;2.58;;
21107;SDS011;10712;52.944;9.098;2023-06-10T13:13:54;3.92;;;3.10;;
21107;SDS011;10712;52.944;9.098;2023-06-10T13:16:19;7.68;;;3.22;;
21107;SDS011;10712;52.944;9.098;2023-06-10T13:18:45;4.22;;;2.80;;
21107;SDS011;10712;52.944;9.098;2023-06-10T13:21:11;3.03;;;2.63;;
21107;SDS011;10712;52.944;9.098;2023-06-10T13:23:37;5.43;;;3.05;;
21107;SDS011;10712;52.944;9.098;2023-06-10T13:26:03;5.60;;;3.45;;
21107;SDS011;10712;52.944;9.098;2023-06-10T13:28:29;10.02;;;3.83;;
21107;SDS011;10712;52.944;9.098;2023-06-10T13:30:56;7.95;;;4.03;;
21107;SDS011;10712;52.944;9.098;2023-06-10T13:33:21;5.60;;;3.55;;
21107;SDS011;10712;52.944;9.098;2023-06-10T13:35:47;5.40;;;3.60;;
21107;SDS011;10712;52.944;9.098;2023-06-10T13:38:13;4.32;;;3.28;;
21107;SDS011;10712;52.944;9.098;2023-06-10T13:40:39;4.35;;;3.28;;
21107;SDS011;10712;52.944;9.098;2023-06-10T13:43:05;8.48;;;3.88;;
21107;SDS011;10712;52.944;9.098;2023-06-10T13:45:30;4.57;;;3.65;;
21107;SDS011;10712;52.944;9.098;2023-06-10T13:47:56;7.35;;;4.90;;
21107;SDS011;10712;52.944;9.098;2023-06-10T13:50:22;4.28;;;3.67;;
21107;SDS011;10712;52.944;9.098;2023-06-10T13:52:48;7.20;;;3.97;;
21107;SDS011;10712;52.944;9.098;2023-06-10T13:55:13;6.43;;;4.30;;
21107;SDS011;10712;52.944;9.098;2023-06-10T13:57:39;7.10;;;4.18;;
21107;SDS011;10712;52.944;9.098;2023-06-10T14:00:05;5.28;;;3.70;;
21107;SDS011;10712;52.944;9.098;2023-06-10T14:02:32;5.07;;;3.97;;
21107;SDS011;10712;52.944;9.098;2023-06-10T14:04:58;10.27;;;4.47;;
21107;SDS011;10712;52.944;9.098;2023-06-10T14:07:23;7.35;;;3.80;;
21107;SDS011;10712;52.944;9.098;2023-06-10T14:09:51;10.90;;;4.90;;
21107;SDS011;10712;52.944;9.098;2023-06-10T14:12:16;6.40;;;3.70;;
21107;SDS011;10712;52.944;9.098;2023-06-10T14:14:42;6.18;;;3.83;;
21107;SDS011;10712;52.944;9.098;2023-06-10T14:17:08;7.03;;;3.95;;
21107;SDS011;10712;52.944;9.098;2023-06-10T14:19:34;4.43;;;3.85;;
21107;SDS011;10712;52.944;9.098;2023-06-10T14:22:00;4.45;;;3.38;;
21107;SDS011;10712;52.944;9.098;2023-06-10T14:24:25;9.57;;;4.03;;
21107;SDS011;10712;52.944;9.098;2023-06-10T14:26:51;4.38;;;3.95;;
21107;SDS011;10712;52.944;9.098;2023-06-10T14:29:17;8.52;;;4.22;;
21107;SDS011;10712;52.944;9.098;2023-06-10T14:31:44;5.65;;;4.00;;
21107;SDS011;10712;52.944;9.098;2023-06-10T14:34:10;6.22;;;3.72;;
21107;SDS011;10712;52.944;9.098;2023-06-10T14:36:35;7.65;;;3.83;;
21107;SDS011;10712;52.944;9.098;2023-06-10T14:39:02;4.50;;;3.75;;
21107;SDS011;10712;52.944;9.098;2023-06-10T14:41:28;8.48;;;4.30;;
21107;SDS011;10712;52.944;9.098;2023-06-10T14:43:53;6.43;;;3.92;;
21107;SDS011;10712;52.944;9.098;2023-06-10T14:46:19;4.63;;;3.95;;
21107;SDS011;10712;52.944;9.098;2023-06-10T14:48:46;6.50;;;4.13;;
21107;SDS011;10712;52.944;9.098;2023-06-10T14:51:12;4.88;;;4.22;;
21107;SDS011;10712;52.944;9.098;2023-06-10T14:53:38;3.70;;;3.40;;
21107;SDS011;10712;52.944;9.098;2023-06-10T14:56:03;7.43;;;4.22;;
21107;SDS011;10712;52.944;9.098;2023-06-10T14:58:30;7.47;;;4.28;;
21107;SDS011;10712;52.944;9.098;2023-06-10T15:00:56;5.15;;;3.78;;
21107;SDS011;10712;52.944;9.098;2023-06-10T15:03:21;6.63;;;4.63;;
21107;SDS011;10712;52.944;9.098;2023-06-10T15:05:47;4.78;;;3.97;;
21107;SDS011;10712;52.944;9.098;2023-06-10T15:08:13;5.07;;;4.38;;
21107;SDS011;10712;52.944;9.098;2023-06-10T15:10:39;5.18;;;4.28;;